Arethusa — 9HJR9 — position and weather

sailwx.info

Track history (hours):
 
Tides and Currents Weather Stations Pressure Air Temp Water Temp Dewpoint Dewpoint Depression Visibility Wind Speed Wind Dir Waves Ship Positions

Arethusa

Last reported at 2016-Aug-28 16:28 UTC. Time now 2016-Aug-28 16:42 UTC.
Position N 44°02' E 010°02'.

Length 60 m; draft 3 m.

Type: Passenger vessel. MMSI: 249069000.

Date/timePositionNaut miles runAvg speedWind from/ knotsBaromVisibWave heightAir tempDewpointWater temp
2016-Aug-28 16:28N 44°02' E 010°02'0 0.0
2016-Aug-28 15:28N 44°02' E 010°02'0 0.0
2016-Aug-28 14:28N 44°02' E 010°02'0 0.0
2016-Aug-28 13:22N 44°02' E 010°02'0 0.0
2016-Aug-28 12:31N 44°02' E 010°02'0 0.0
2016-Aug-28 10:04N 44°02' E 010°02'0 0.0
2016-Aug-28 09:25N 44°02' E 010°02'0 0.0
2016-Aug-28 08:33N 44°02' E 010°02'0 0.0
2016-Aug-28 07:32N 44°02' E 010°02'0 0.0
2016-Aug-28 06:33N 44°02' E 010°02'0 0.0
2016-Aug-28 05:33N 44°02' E 010°02'0 0.0
2016-Aug-28 04:32N 44°02' E 010°02'0 0.0
2016-Aug-28 03:33N 44°02' E 010°02'0 0.0
2016-Aug-28 02:33N 44°02' E 010°02'0 0.0
2016-Aug-28 01:34N 44°02' E 010°02'0 0.0
2016-Aug-28 00:33N 44°02' E 010°02'0 0.0
2016-Aug-27 23:34N 44°02' E 010°02'0 0.0
2016-Aug-27 22:33N 44°02' E 010°02'0 0.0
2016-Aug-27 21:33N 44°02' E 010°02'0 0.0
2016-Aug-27 20:33N 44°02' E 010°02'0 0.0
2016-Aug-27 19:34N 44°02' E 010°02'0 0.0
2016-Aug-27 18:33N 44°02' E 010°02'0 0.0
2016-Aug-27 17:33N 44°02' E 010°02'0 0.0
2016-Aug-27 16:33N 44°02' E 010°02'0 0.0
2016-Aug-27 15:33N 44°02' E 010°02'0 0.0
2016-Aug-27 14:34N 44°02' E 010°02'0 0.0
2016-Aug-27 13:33N 44°02' E 010°02'0 0.0
2016-Aug-27 12:34N 44°02' E 010°02'0 0.0
2016-Aug-27 11:33N 44°02' E 010°02'0 0.0
2016-Aug-27 10:34N 44°02' E 010°02'0 0.0
2016-Aug-27 09:33N 44°02' E 010°02'0 0.0
2016-Aug-27 08:34N 44°02' E 010°02'0 0.0
2016-Aug-27 07:33N 44°02' E 010°02'0 0.0
2016-Aug-27 06:33N 44°02' E 010°02'11 5.3
2016-Aug-27 04:33N 43°52' E 009°58'1010.1
2016-Aug-27 03:34N 43°43' E 009°53'1010.2
2016-Aug-27 02:34N 43°33' E 009°48'1010.1
2016-Aug-27 01:33N 43°23' E 009°43'10 9.8
2016-Aug-27 00:34N 43°14' E 009°40'13 9.8
2016-Aug-26 23:12N 43°01' E 009°37'810.2
2016-Aug-26 22:26N 42°53' E 009°34'10 0.4
2016-Aug-25 21:22N 42°43' E 009°34'8 9.9
2016-Aug-25 20:33N 42°46' E 009°45'26 8.6
2016-Aug-25 17:33N 42°49' E 010°20'1 0.0
2016-Aug-24 19:31N 42°49' E 010°20'1010.1
2016-Aug-24 18:34N 42°58' E 010°19'1110.6
2016-Aug-24 17:33N 43°09' E 010°17'1111.0
2016-Aug-24 16:33N 43°20' E 010°15'1111.0
2016-Aug-24 15:33N 43°31' E 010°13'4 3.9
2016-Aug-24 14:31N 43°33' E 010°18'0 0.0
2016-Aug-24 13:22N 43°33' E 010°18'0 0.0
2016-Aug-24 12:28N 43°33' E 010°18'0 0.0
2016-Aug-24 11:28N 43°33' E 010°18'0 0.0
2016-Aug-24 10:33N 43°33' E 010°18'0 0.0
2016-Aug-24 09:33N 43°33' E 010°18'0 0.0
2016-Aug-24 08:33N 43°33' E 010°18'0 0.0
2016-Aug-24 07:33N 43°33' E 010°18'0 0.0
2016-Aug-24 06:33N 43°33' E 010°18'0 0.0
2016-Aug-24 04:33N 43°33' E 010°18'0 0.0
2016-Aug-24 03:33N 43°33' E 010°18'0 0.0
2016-Aug-24 02:33N 43°33' E 010°18'0 0.0
2016-Aug-24 01:33N 43°33' E 010°18'0 0.0
2016-Aug-24 00:33N 43°33' E 010°18'0 0.0
2016-Aug-23 23:33N 43°33' E 010°18'0 0.0
2016-Aug-23 22:33N 43°33' E 010°18'4 3.9
2016-Aug-23 21:33N 43°30' E 010°14'8 7.8
2016-Aug-23 20:33N 43°22' E 010°15'8 7.6
2016-Aug-23 19:33N 43°15' E 010°16'8 7.7
2016-Aug-23 18:33N 43°07' E 010°18'9 7.7
2016-Aug-23 17:24N 42°58' E 010°19'7 7.3
2016-Aug-23 16:31N 42°52' E 010°20'3 2.9
2016-Aug-23 15:29N 42°49' E 010°20'0 0.0
2016-Aug-23 14:26N 42°49' E 010°20'0 0.0
2016-Aug-23 13:33N 42°49' E 010°20'0 0.0
2016-Aug-23 12:34N 42°49' E 010°20'1 0.1
2016-Aug-23 04:25N 42°48' E 010°20'7 0.7
2016-Aug-22 19:21N 42°52' E 010°12'810.7
2016-Aug-22 18:33N 42°49' E 010°01'1210.5
2016-Aug-22 17:27N 42°46' E 009°46'910.1
2016-Aug-22 16:33N 42°43' E 009°35'26 1.7
2016-Aug-22 01:29N 43°01' E 010°00'1111.4
2016-Aug-22 00:32N 43°12' E 010°02'1111.2
2016-Aug-21 23:32N 43°23' E 010°03'1010.8
2016-Aug-21 22:34N 43°34' E 010°04'1010.5
2016-Aug-21 21:33N 43°44' E 010°04'1111.2
2016-Aug-21 20:33N 43°55' E 010°04'7 6.6
2016-Aug-21 19:32N 44°02' E 010°02'0 0.0
2016-Aug-21 18:23N 44°02' E 010°02'0 0.0
2016-Aug-21 17:29N 44°02' E 010°02'0 0.0
2016-Aug-21 16:17N 44°02' E 010°02'0 0.0
2016-Aug-21 15:32N 44°02' E 010°02'0 0.0
2016-Aug-21 14:29N 44°02' E 010°02'0 0.0
2016-Aug-21 13:32N 44°02' E 010°02'0 0.0
2016-Aug-21 12:32N 44°02' E 010°02'0 0.0
2016-Aug-21 11:32N 44°02' E 010°02'0 0.0
2016-Aug-21 10:28N 44°02' E 010°02'0 0.0
2016-Aug-21 09:33N 44°02' E 010°02'0 0.0
2016-Aug-21 08:33N 44°02' E 010°02'0 0.0
2016-Aug-21 07:33N 44°02' E 010°02'0 0.0
2016-Aug-21 06:33N 44°02' E 010°02'0 0.0
2016-Aug-21 05:33N 44°02' E 010°02'0 0.0
2016-Aug-21 04:33N 44°02' E 010°02'0 0.0
2016-Aug-21 03:33N 44°02' E 010°02'0 0.0
2016-Aug-21 02:33N 44°02' E 010°02'0 0.0
2016-Aug-21 01:34N 44°02' E 010°02'0 0.0
2016-Aug-21 00:33N 44°02' E 010°02'0 0.0
2016-Aug-20 23:33N 44°02' E 010°02'0 0.0
2016-Aug-20 22:33N 44°02' E 010°02'0 0.0
2016-Aug-20 21:18N 44°02' E 010°02'0 0.0
2016-Aug-20 20:33N 44°02' E 010°02'0 0.0
2016-Aug-20 19:32N 44°02' E 010°02'0 0.0
2016-Aug-20 18:33N 44°02' E 010°02'0 0.0
2016-Aug-20 17:33N 44°02' E 010°02'0 0.0
2016-Aug-20 16:33N 44°02' E 010°02'0 0.0
2016-Aug-20 15:33N 44°02' E 010°02'0 0.0
2016-Aug-20 14:33N 44°02' E 010°02'0 0.0
2016-Aug-20 13:33N 44°02' E 010°02'0 0.0
2016-Aug-20 12:33N 44°02' E 010°02'0 0.0
2016-Aug-20 11:33N 44°02' E 010°02'0 0.0
2016-Aug-20 10:33N 44°02' E 010°02'0 0.0
2016-Aug-20 09:33N 44°02' E 010°02'0 0.0
2016-Aug-20 08:32N 44°02' E 010°02'0 0.0
2016-Aug-20 07:33N 44°02' E 010°02'0 0.0
2016-Aug-20 06:33N 44°02' E 010°02'0 0.0
2016-Aug-20 05:33N 44°02' E 010°02'0 0.0
2016-Aug-20 04:33N 44°02' E 010°02'0 0.0
2016-Aug-20 03:33N 44°02' E 010°02'0 0.0
2016-Aug-20 02:33N 44°02' E 010°02'0 0.0
2016-Aug-20 01:33N 44°02' E 010°02'0 0.0
2016-Aug-20 00:33N 44°02' E 010°02'0 0.0
2016-Aug-19 23:33N 44°02' E 010°02'0 0.0
2016-Aug-19 22:33N 44°02' E 010°02'3 3.1
2016-Aug-19 21:33N 44°00' E 009°59'8 8.0
2016-Aug-19 20:33N 44°00' E 009°48'8 7.8
2016-Aug-19 19:33N 44°04' E 009°38'8 8.1
2016-Aug-19 18:33N 44°10' E 009°30'8 8.0
2016-Aug-19 17:33N 44°15' E 009°21'7 0.6
2016-Aug-19 04:33N 44°15' E 009°11'1010.1
2016-Aug-19 03:33N 44°10' E 008°58'1111.3
2016-Aug-19 02:33N 44°04' E 008°45'6710.7
2016-Aug-18 20:17N 43°40' E 007°18'2 0.6
2016-Aug-18 17:20N 43°42' E 007°17'0 0.0
2016-Aug-18 16:32N 43°42' E 007°17'  
Track history (hours):
 
Tides and Currents Weather Stations Pressure Air Temp Water Temp Dewpoint Dewpoint Depression Visibility Wind Speed Wind Dir Waves Ship Positions

Arethusa

Last reported at 2016-Aug-28 16:28 UTC. Time now 2016-Aug-28 16:42 UTC.
Position N 44°02' E 010°02'.

Length 60 m; draft 3 m.

Type: Passenger vessel. MMSI: 249069000.

Date/timePositionNaut miles runAvg speedWind from/ knotsBaromVisibWave heightAir tempDewpointWater temp
2016-Aug-28 16:28N 44°02' E 010°02'0 0.0
2016-Aug-28 15:28N 44°02' E 010°02'0 0.0
2016-Aug-28 14:28N 44°02' E 010°02'0 0.0
2016-Aug-28 13:22N 44°02' E 010°02'0 0.0
2016-Aug-28 12:31N 44°02' E 010°02'0 0.0
2016-Aug-28 10:04N 44°02' E 010°02'0 0.0
2016-Aug-28 09:25N 44°02' E 010°02'0 0.0
2016-Aug-28 08:33N 44°02' E 010°02'0 0.0
2016-Aug-28 07:32N 44°02' E 010°02'0 0.0
2016-Aug-28 06:33N 44°02' E 010°02'0 0.0
2016-Aug-28 05:33N 44°02' E 010°02'0 0.0
2016-Aug-28 04:32N 44°02' E 010°02'0 0.0
2016-Aug-28 03:33N 44°02' E 010°02'0 0.0
2016-Aug-28 02:33N 44°02' E 010°02'0 0.0
2016-Aug-28 01:34N 44°02' E 010°02'0 0.0
2016-Aug-28 00:33N 44°02' E 010°02'0 0.0
2016-Aug-27 23:34N 44°02' E 010°02'0 0.0
2016-Aug-27 22:33N 44°02' E 010°02'0 0.0
2016-Aug-27 21:33N 44°02' E 010°02'0 0.0
2016-Aug-27 20:33N 44°02' E 010°02'0 0.0
2016-Aug-27 19:34N 44°02' E 010°02'0 0.0
2016-Aug-27 18:33N 44°02' E 010°02'0 0.0
2016-Aug-27 17:33N 44°02' E 010°02'0 0.0
2016-Aug-27 16:33N 44°02' E 010°02'0 0.0
2016-Aug-27 15:33N 44°02' E 010°02'0 0.0
2016-Aug-27 14:34N 44°02' E 010°02'0 0.0
2016-Aug-27 13:33N 44°02' E 010°02'0 0.0
2016-Aug-27 12:34N 44°02' E 010°02'0 0.0
2016-Aug-27 11:33N 44°02' E 010°02'0 0.0
2016-Aug-27 10:34N 44°02' E 010°02'0 0.0
2016-Aug-27 09:33N 44°02' E 010°02'0 0.0
2016-Aug-27 08:34N 44°02' E 010°02'0 0.0
2016-Aug-27 07:33N 44°02' E 010°02'0 0.0
2016-Aug-27 06:33N 44°02' E 010°02'11 5.3
2016-Aug-27 04:33N 43°52' E 009°58'1010.1
2016-Aug-27 03:34N 43°43' E 009°53'1010.2
2016-Aug-27 02:34N 43°33' E 009°48'1010.1
2016-Aug-27 01:33N 43°23' E 009°43'10 9.8
2016-Aug-27 00:34N 43°14' E 009°40'13 9.8
2016-Aug-26 23:12N 43°01' E 009°37'810.2
2016-Aug-26 22:26N 42°53' E 009°34'10 0.4
2016-Aug-25 21:22N 42°43' E 009°34'8 9.9
2016-Aug-25 20:33N 42°46' E 009°45'26 8.6
2016-Aug-25 17:33N 42°49' E 010°20'1 0.0
2016-Aug-24 19:31N 42°49' E 010°20'1010.1
2016-Aug-24 18:34N 42°58' E 010°19'1110.6
2016-Aug-24 17:33N 43°09' E 010°17'1111.0
2016-Aug-24 16:33N 43°20' E 010°15'1111.0
2016-Aug-24 15:33N 43°31' E 010°13'4 3.9
2016-Aug-24 14:31N 43°33' E 010°18'0 0.0
2016-Aug-24 13:22N 43°33' E 010°18'0 0.0
2016-Aug-24 12:28N 43°33' E 010°18'0 0.0
2016-Aug-24 11:28N 43°33' E 010°18'0 0.0
2016-Aug-24 10:33N 43°33' E 010°18'0 0.0
2016-Aug-24 09:33N 43°33' E 010°18'0 0.0
2016-Aug-24 08:33N 43°33' E 010°18'0 0.0
2016-Aug-24 07:33N 43°33' E 010°18'0 0.0
2016-Aug-24 06:33N 43°33' E 010°18'0 0.0
2016-Aug-24 04:33N 43°33' E 010°18'0 0.0
2016-Aug-24 03:33N 43°33' E 010°18'0 0.0
2016-Aug-24 02:33N 43°33' E 010°18'0 0.0
2016-Aug-24 01:33N 43°33' E 010°18'0 0.0
2016-Aug-24 00:33N 43°33' E 010°18'0 0.0
2016-Aug-23 23:33N 43°33' E 010°18'0 0.0
2016-Aug-23 22:33N 43°33' E 010°18'4 3.9
2016-Aug-23 21:33N 43°30' E 010°14'8 7.8
2016-Aug-23 20:33N 43°22' E 010°15'8 7.6
2016-Aug-23 19:33N 43°15' E 010°16'8 7.7
2016-Aug-23 18:33N 43°07' E 010°18'9 7.7
2016-Aug-23 17:24N 42°58' E 010°19'7 7.3
2016-Aug-23 16:31N 42°52' E 010°20'3 2.9
2016-Aug-23 15:29N 42°49' E 010°20'0 0.0
2016-Aug-23 14:26N 42°49' E 010°20'0 0.0
2016-Aug-23 13:33N 42°49' E 010°20'0 0.0
2016-Aug-23 12:34N 42°49' E 010°20'1 0.1
2016-Aug-23 04:25N 42°48' E 010°20'7 0.7
2016-Aug-22 19:21N 42°52' E 010°12'810.7
2016-Aug-22 18:33N 42°49' E 010°01'1210.5
2016-Aug-22 17:27N 42°46' E 009°46'910.1
2016-Aug-22 16:33N 42°43' E 009°35'26 1.7
2016-Aug-22 01:29N 43°01' E 010°00'1111.4
2016-Aug-22 00:32N 43°12' E 010°02'1111.2
2016-Aug-21 23:32N 43°23' E 010°03'1010.8
2016-Aug-21 22:34N 43°34' E 010°04'1010.5
2016-Aug-21 21:33N 43°44' E 010°04'1111.2
2016-Aug-21 20:33N 43°55' E 010°04'7 6.6
2016-Aug-21 19:32N 44°02' E 010°02'0 0.0
2016-Aug-21 18:23N 44°02' E 010°02'0 0.0
2016-Aug-21 17:29N 44°02' E 010°02'0 0.0
2016-Aug-21 16:17N 44°02' E 010°02'0 0.0
2016-Aug-21 15:32N 44°02' E 010°02'0 0.0
2016-Aug-21 14:29N 44°02' E 010°02'0 0.0
2016-Aug-21 13:32N 44°02' E 010°02'0 0.0
2016-Aug-21 12:32N 44°02' E 010°02'0 0.0
2016-Aug-21 11:32N 44°02' E 010°02'0 0.0
2016-Aug-21 10:28N 44°02' E 010°02'0 0.0
2016-Aug-21 09:33N 44°02' E 010°02'0 0.0
2016-Aug-21 08:33N 44°02' E 010°02'0 0.0
2016-Aug-21 07:33N 44°02' E 010°02'0 0.0
2016-Aug-21 06:33N 44°02' E 010°02'0 0.0
2016-Aug-21 05:33N 44°02' E 010°02'0 0.0
2016-Aug-21 04:33N 44°02' E 010°02'0 0.0
2016-Aug-21 03:33N 44°02' E 010°02'0 0.0
2016-Aug-21 02:33N 44°02' E 010°02'0 0.0
2016-Aug-21 01:34N 44°02' E 010°02'0 0.0
2016-Aug-21 00:33N 44°02' E 010°02'0 0.0
2016-Aug-20 23:33N 44°02' E 010°02'0 0.0
2016-Aug-20 22:33N 44°02' E 010°02'0 0.0
2016-Aug-20 21:18N 44°02' E 010°02'0 0.0
2016-Aug-20 20:33N 44°02' E 010°02'0 0.0
2016-Aug-20 19:32N 44°02' E 010°02'0 0.0
2016-Aug-20 18:33N 44°02' E 010°02'0 0.0
2016-Aug-20 17:33N 44°02' E 010°02'0 0.0
2016-Aug-20 16:33N 44°02' E 010°02'0 0.0
2016-Aug-20 15:33N 44°02' E 010°02'0 0.0
2016-Aug-20 14:33N 44°02' E 010°02'0 0.0
2016-Aug-20 13:33N 44°02' E 010°02'0 0.0
2016-Aug-20 12:33N 44°02' E 010°02'0 0.0
2016-Aug-20 11:33N 44°02' E 010°02'0 0.0
2016-Aug-20 10:33N 44°02' E 010°02'0 0.0
2016-Aug-20 09:33N 44°02' E 010°02'0 0.0
2016-Aug-20 08:32N 44°02' E 010°02'0 0.0
2016-Aug-20 07:33N 44°02' E 010°02'0 0.0
2016-Aug-20 06:33N 44°02' E 010°02'0 0.0
2016-Aug-20 05:33N 44°02' E 010°02'0 0.0
2016-Aug-20 04:33N 44°02' E 010°02'0 0.0
2016-Aug-20 03:33N 44°02' E 010°02'0 0.0
2016-Aug-20 02:33N 44°02' E 010°02'0 0.0
2016-Aug-20 01:33N 44°02' E 010°02'0 0.0
2016-Aug-20 00:33N 44°02' E 010°02'0 0.0
2016-Aug-19 23:33N 44°02' E 010°02'0 0.0
2016-Aug-19 22:33N 44°02' E 010°02'3 3.1
2016-Aug-19 21:33N 44°00' E 009°59'8 8.0
2016-Aug-19 20:33N 44°00' E 009°48'8 7.8
2016-Aug-19 19:33N 44°04' E 009°38'8 8.1
2016-Aug-19 18:33N 44°10' E 009°30'8 8.0
2016-Aug-19 17:33N 44°15' E 009°21'7 0.6
2016-Aug-19 04:33N 44°15' E 009°11'1010.1
2016-Aug-19 03:33N 44°10' E 008°58'1111.3
2016-Aug-19 02:33N 44°04' E 008°45'6710.7
2016-Aug-18 20:17N 43°40' E 007°18'2 0.6
2016-Aug-18 17:20N 43°42' E 007°17'0 0.0
2016-Aug-18 16:32N 43°42' E 007°17'  

Dump ship's entire track history